Time;durP1;ratioP1;P1;durP2;ratioP2;P2;SDS_P1;SDS_P2;PMS_P1;PMS_P2;Temp;Humidity;BMP_temperature;BMP_pressure;BME280_temperature;BME280_humidity;BME280_pressure;Samples;Min_cycle;Max_cycle;Signal;HPM_P1;HPM_P2
2023/08/12 00:02:12;;;;;;;1999.90;999.90;;;22.90;99.90;;;;;;5053164;28;20407;-70
2023/08/12 00:04:37;;;;;;;1999.90;999.90;;;22.90;99.90;;;;;;5053474;28;20557;-69
2023/08/12 00:07:03;;;;;;;1999.90;999.90;;;22.90;99.90;;;;;;5053363;28;20168;-69
2023/08/12 00:09:28;;;;;;;1999.90;999.90;;;22.90;99.90;;;;;;5053301;28;20190;-69
2023/08/12 00:11:54;;;;;;;1999.90;999.90;;;22.90;99.90;;;;;;5052871;28;20578;-69
2023/08/12 00:14:19;;;;;;;1999.90;999.90;;;22.90;99.90;;;;;;5053232;28;20171;-70
2023/08/12 00:16:45;;;;;;;1999.90;999.90;;;22.90;99.90;;;;;;5053138;28;20202;-69
2023/08/12 00:19:11;;;;;;;1999.90;999.90;;;22.80;99.90;;;;;;5053224;28;20264;-70
2023/08/12 00:21:36;;;;;;;1999.90;999.90;;;22.80;99.90;;;;;;5052886;28;20171;-70
2023/08/12 00:24:02;;;;;;;1999.90;999.90;;;22.90;99.90;;;;;;5053117;28;20168;-69
2023/08/12 00:26:27;;;;;;;1999.90;999.90;;;22.90;99.90;;;;;;5052986;28;20247;-69
2023/08/12 00:28:53;;;;;;;1999.90;999.90;;;22.90;99.90;;;;;;5052859;28;20679;-70
2023/08/12 00:31:19;;;;;;;1999.90;999.90;;;23.00;99.90;;;;;;5052622;28;20211;-70
2023/08/12 00:33:44;;;;;;;1999.90;999.90;;;22.90;99.90;;;;;;5052934;28;20172;-69
2023/08/12 00:36:10;;;;;;;1999.90;999.90;;;22.80;99.90;;;;;;5053006;28;20210;-70
2023/08/12 00:38:35;;;;;;;1999.90;999.90;;;22.80;99.90;;;;;;5052659;28;20692;-70
2023/08/12 00:41:01;;;;;;;1999.90;999.90;;;22.70;99.90;;;;;;5052508;28;20247;-70
2023/08/12 00:43:27;;;;;;;1999.90;999.90;;;22.80;99.90;;;;;;5052712;28;20166;-70
2023/08/12 00:45:52;;;;;;;1999.90;999.90;;;22.70;99.90;;;;;;5052654;28;20255;-70
2023/08/12 00:48:18;;;;;;;1999.90;999.90;;;22.80;99.90;;;;;;5052545;28;20617;-70
2023/08/12 00:50:44;;;;;;;1999.90;999.90;;;22.70;99.90;;;;;;5052715;28;20571;-70
2023/08/12 00:53:11;;;;;;;1999.90;999.90;;;22.80;99.90;;;;;;5052330;28;20163;-70
2023/08/12 00:55:37;;;;;;;1999.90;999.90;;;22.80;99.90;;;;;;5052459;28;20373;-69
2023/08/12 00:58:03;;;;;;;1999.90;999.90;;;22.80;99.90;;;;;;5052315;28;20959;-70
2023/08/12 01:00:30;;;;;;;1999.90;999.90;;;22.80;99.90;;;;;;5052398;28;20254;-70
2023/08/12 01:02:56;;;;;;;1999.90;999.90;;;22.70;99.90;;;;;;5052207;28;20416;-70
2023/08/12 01:05:22;;;;;;;1999.90;999.90;;;22.70;99.90;;;;;;5052497;28;20398;-70
2023/08/12 01:07:48;;;;;;;1999.90;999.90;;;22.70;99.90;;;;;;5052361;28;20764;-69
2023/08/12 01:10:16;;;;;;;1999.90;999.90;;;22.70;99.90;;;;;;5052095;28;20418;-69
2023/08/12 01:13:04;;;;;;;1999.90;999.90;;;22.70;99.90;;;;;;5051911;28;20237;-69
2023/08/12 01:15:30;;;;;;;1999.90;999.90;;;22.60;99.90;;;;;;5052229;28;20763;-69
2023/08/12 01:17:59;;;;;;;1999.90;999.90;;;22.60;99.90;;;;;;5052183;28;20380;-69
2023/08/12 01:20:26;;;;;;;1999.90;999.90;;;22.60;99.90;;;;;;5052037;28;20789;-69
2023/08/12 01:23:11;;;;;;;1999.90;999.90;;;22.60;99.90;;;;;;5051760;28;20384;-70
2023/08/12 01:25:37;;;;;;;1999.90;999.90;;;22.60;99.90;;;;;;5052021;28;20373;-70
2023/08/12 01:28:03;;;;;;;1999.90;999.90;;;22.60;99.90;;;;;;5051966;28;20409;-70
2023/08/12 01:30:29;;;;;;;1999.90;999.90;;;22.60;99.90;;;;;;5052148;28;20387;-69
2023/08/12 01:33:08;;;;;;;1999.90;999.90;;;22.50;99.90;;;;;;5051645;28;20405;-69
2023/08/12 01:35:40;;;;;;;1999.90;999.90;;;22.50;99.90;;;;;;5051973;28;20187;-69
2023/08/12 01:38:08;;;;;;;1999.90;999.90;;;22.50;99.90;;;;;;5051626;28;20434;-69
2023/08/12 01:40:35;;;;;;;1999.90;999.90;;;22.50;99.90;;;;;;5051889;28;20402;-70
2023/08/12 01:43:08;;;;;;;1999.90;999.90;;;22.50;99.90;;;;;;5051715;28;20437;-70
2023/08/12 01:45:34;;;;;;;1999.90;999.90;;;22.50;99.90;;;;;;5051885;28;20426;-69
2023/08/12 01:47:59;;;;;;;1999.90;999.90;;;22.50;99.90;;;;;;5051710;28;20416;-70
2023/08/12 01:50:25;;;;;;;1999.90;999.90;;;22.50;99.90;;;;;;5055803;28;20406;-69
2023/08/12 01:52:51;;;;;;;1999.90;999.90;;;22.50;99.90;;;;;;5055663;28;20173;-70
2023/08/12 01:55:16;;;;;;;1999.90;999.90;;;22.50;99.90;;;;;;5055820;28;20406;-70
2023/08/12 01:57:42;;;;;;;1999.90;999.90;;;22.60;99.90;;;;;;5056180;28;20183;-69
2023/08/12 02:00:08;;;;;;;1999.90;999.90;;;22.50;99.90;;;;;;5055928;28;20287;-70
2023/08/12 02:02:34;;;;;;;1999.90;999.90;;;22.50;99.90;;;;;;5055791;28;20214;-71
2023/08/12 02:04:59;;;;;;;1999.90;999.90;;;22.50;99.90;;;;;;5055771;28;20380;-71
2023/08/12 02:07:25;;;;;;;1999.90;999.90;;;22.50;99.90;;;;;;5055740;28;20168;-70
2023/08/12 02:09:50;;;;;;;1999.90;999.90;;;22.50;99.90;;;;;;5055505;28;20207;-70
2023/08/12 02:12:16;;;;;;;1999.90;999.90;;;22.50;99.90;;;;;;5055501;28;20301;-69
2023/08/12 02:14:42;;;;;;;1999.90;999.90;;;22.50;99.90;;;;;;5056213;28;20576;-69
2023/08/12 02:17:07;;;;;;;1999.90;999.90;;;22.40;99.90;;;;;;5055774;28;20171;-70
2023/08/12 02:19:33;;;;;;;1999.90;999.90;;;22.40;99.90;;;;;;5055417;28;20699;-69
2023/08/12 02:22:01;;;;;;;1999.90;999.90;;;22.40;99.90;;;;;;5055058;28;20630;-69
2023/08/12 02:24:27;;;;;;;1999.90;999.90;;;22.40;99.90;;;;;;5055268;28;20436;-70
2023/08/12 02:26:52;;;;;;;1999.90;999.90;;;22.30;99.90;;;;;;5055460;28;20392;-70
2023/08/12 02:29:18;;;;;;;1999.90;999.90;;;22.40;99.90;;;;;;5055288;28;20669;-69
2023/08/12 02:31:43;;;;;;;1999.90;999.90;;;22.40;99.90;;;;;;5054997;28;20168;-70
2023/08/12 02:34:09;;;;;;;1999.90;999.90;;;22.40;99.90;;;;;;5055152;28;20168;-71
2023/08/12 02:36:35;;;;;;;1999.90;999.90;;;22.40;99.90;;;;;;5055354;28;20199;-70
2023/08/12 02:39:01;;;;;;;1999.90;999.90;;;22.40;99.90;;;;;;5054900;28;20493;-70
2023/08/12 02:41:26;;;;;;;1999.90;999.90;;;22.40;99.90;;;;;;5054886;28;20571;-71
2023/08/12 02:43:52;;;;;;;1999.90;999.90;;;22.50;99.90;;;;;;5055109;28;20262;-69
2023/08/12 02:46:18;;;;;;;1999.90;999.90;;;22.40;99.90;;;;;;5054929;28;20572;-69
2023/08/12 02:48:47;;;;;;;1999.90;999.90;;;22.30;99.90;;;;;;5054693;28;20194;-69
2023/08/12 02:51:12;;;;;;;1999.90;999.90;;;22.30;99.90;;;;;;5054724;28;20470;-69
2023/08/12 02:53:38;;;;;;;1999.90;999.90;;;22.40;99.90;;;;;;5054754;28;20408;-69
2023/08/12 02:56:04;;;;;;;1999.90;999.90;;;22.40;99.90;;;;;;5054832;28;20172;-69
2023/08/12 02:58:29;;;;;;;1999.90;999.90;;;22.40;99.90;;;;;;5054598;28;20192;-70
2023/08/12 03:00:55;;;;;;;1999.90;999.90;;;22.40;99.90;;;;;;5053190;28;20176;-70
2023/08/12 03:03:21;;;;;;;1999.90;999.90;;;22.40;99.90;;;;;;5054733;28;20655;-70
2023/08/12 03:05:47;;;;;;;1999.90;999.90;;;22.30;99.90;;;;;;5054875;28;20190;-69
2023/08/12 03:08:13;;;;;;;1999.90;999.90;;;22.30;99.90;;;;;;5054419;28;20456;-70
2023/08/12 03:10:39;;;;;;;1999.90;999.90;;;22.30;99.90;;;;;;5054461;28;20398;-70
2023/08/12 03:13:04;;;;;;;1999.90;999.90;;;22.30;99.90;;;;;;5054132;28;20633;-69
2023/08/12 03:15:30;;;;;;;1999.90;999.90;;;22.20;99.90;;;;;;5054803;28;20168;-70
2023/08/12 03:17:56;;;;;;;1999.90;999.90;;;22.20;99.90;;;;;;5054348;28;20191;-69
2023/08/12 03:20:22;;;;;;;1999.90;999.90;;;22.20;99.90;;;;;;5054584;28;20642;-70
2023/08/12 03:22:48;;;;;;;1999.90;999.90;;;22.20;99.90;;;;;;5054256;28;20497;-70
2023/08/12 03:25:15;;;;;;;1999.90;999.90;;;22.10;99.90;;;;;;5054183;28;20412;-70
2023/08/12 03:27:41;;;;;;;1999.90;999.90;;;22.10;99.90;;;;;;5054307;28;20182;-69
2023/08/12 03:30:07;;;;;;;1999.90;999.90;;;22.10;99.90;;;;;;5053944;28;20439;-69
2023/08/12 03:32:33;;;;;;;1999.90;999.90;;;22.00;99.90;;;;;;5053717;28;20451;-69
2023/08/12 03:34:58;;;;;;;1999.90;999.90;;;22.00;99.90;;;;;;5054034;28;20384;-70
2023/08/12 03:37:25;;;;;;;1999.90;999.90;;;22.00;99.90;;;;;;5053980;28;20210;-69
2023/08/12 03:39:51;;;;;;;1999.90;999.90;;;22.00;99.90;;;;;;5053671;28;20292;-69
2023/08/12 03:42:16;;;;;;;1999.90;999.90;;;21.90;99.90;;;;;;5053576;28;20478;-69
2023/08/12 03:44:43;;;;;;;1999.90;999.90;;;21.80;99.90;;;;;;5053895;28;20215;-70
2023/08/12 03:47:09;;;;;;;1999.90;999.90;;;21.80;99.90;;;;;;5053930;28;20172;-70
2023/08/12 03:49:34;;;;;;;1999.90;999.90;;;21.80;99.90;;;;;;5054166;28;20509;-70
2023/08/12 03:52:00;;;;;;;1999.90;999.90;;;21.80;99.90;;;;;;5053744;28;20171;-69
2023/08/12 03:54:26;;;;;;;1999.90;999.90;;;21.80;99.90;;;;;;5053990;28;20172;-69
2023/08/12 03:56:51;;;;;;;1999.90;999.90;;;21.80;99.90;;;;;;5053578;28;20414;-69
2023/08/12 03:59:17;;;;;;;1999.90;999.90;;;21.80;99.90;;;;;;5053709;28;20675;-70
2023/08/12 04:01:43;;;;;;;1999.90;999.90;;;21.70;99.90;;;;;;5053682;28;20170;-70
2023/08/12 04:04:08;;;;;;;1999.90;999.90;;;21.60;99.90;;;;;;5053717;28;20173;-70
2023/08/12 04:06:34;;;;;;;1999.90;999.90;;;21.60;99.90;;;;;;5053633;28;20171;-70
2023/08/12 04:08:59;;;;;;;1999.90;999.90;;;21.50;99.90;;;;;;5053667;28;20262;-70
2023/08/12 04:11:25;;;;;;;1999.90;999.90;;;21.60;99.90;;;;;;5052880;28;20169;-70
2023/08/12 04:13:50;;;;;;;1999.90;999.90;;;21.60;99.90;;;;;;5053663;28;20537;-70
2023/08/12 04:16:16;;;;;;;1999.90;999.90;;;21.60;99.90;;;;;;5053188;28;20257;-69
2023/08/12 04:18:42;;;;;;;1999.90;999.90;;;21.60;99.90;;;;;;5053014;28;20235;-70
2023/08/12 04:21:08;;;;;;;1999.90;999.90;;;21.60;99.90;;;;;;5052943;28;20201;-70
2023/08/12 04:23:33;;;;;;;1999.90;999.90;;;21.60;99.90;;;;;;5053262;28;20894;-70
2023/08/12 04:25:59;;;;;;;1999.90;999.90;;;21.60;99.90;;;;;;5053240;28;20195;-71
2023/08/12 04:28:25;;;;;;;1999.90;999.90;;;21.60;99.90;;;;;;5053118;28;20652;-70
2023/08/12 04:30:52;;;;;;;1999.90;999.90;;;21.60;99.90;;;;;;5053015;28;20173;-69
2023/08/12 04:33:19;;;;;;;1999.90;999.90;;;21.60;99.90;;;;;;5052911;28;20402;-70
2023/08/12 04:35:45;;;;;;;1999.90;999.90;;;21.60;99.90;;;;;;5053184;28;20401;-70
2023/08/12 04:38:11;;;;;;;1999.90;999.90;;;21.70;99.90;;;;;;5053026;28;20487;-70
2023/08/12 04:40:40;;;;;;;1999.90;999.90;;;21.70;99.90;;;;;;5053127;28;20194;-70
2023/08/12 04:43:07;;;;;;;1999.90;999.90;;;21.70;99.90;;;;;;5051831;28;20187;-69
2023/08/12 04:45:33;;;;;;;1999.90;999.90;;;21.80;99.90;;;;;;5047030;28;20429;-69
2023/08/12 04:47:59;;;;;;;1999.90;999.90;;;21.80;99.90;;;;;;5049768;28;20418;-70
2023/08/12 04:50:25;;;;;;;1999.90;999.90;;;21.80;99.90;;;;;;5052734;28;20189;-69
2023/08/12 04:52:50;;;;;;;1999.90;999.90;;;21.80;99.90;;;;;;5052233;28;20919;-70
2023/08/12 04:55:17;;;;;;;1999.90;999.90;;;21.80;99.90;;;;;;5052492;28;20237;-69
2023/08/12 04:57:42;;;;;;;1999.90;999.90;;;21.80;99.90;;;;;;5052478;28;20226;-69
2023/08/12 05:00:08;;;;;;;1999.90;999.90;;;21.80;99.90;;;;;;5052215;28;20457;-70
2023/08/12 05:02:34;;;;;;;1999.90;999.90;;;21.80;99.90;;;;;;5052185;28;20179;-70
2023/08/12 05:05:00;;;;;;;1999.90;999.90;;;21.80;99.90;;;;;;5052525;28;20225;-71
2023/08/12 05:07:26;;;;;;;1999.90;999.90;;;21.80;99.90;;;;;;5052613;28;20409;-71
2023/08/12 05:09:52;;;;;;;1999.90;999.90;;;21.80;99.90;;;;;;5052307;28;20428;-71
2023/08/12 05:12:17;;;;;;;1999.90;999.90;;;21.80;99.90;;;;;;5051927;28;20416;-69
2023/08/12 05:14:43;;;;;;;1999.90;999.90;;;21.90;99.90;;;;;;5051214;28;20184;-70
2023/08/12 05:17:09;;;;;;;1999.90;999.90;;;22.00;99.90;;;;;;5049966;28;20179;-70
2023/08/12 05:19:34;;;;;;;1999.90;999.90;;;22.00;99.90;;;;;;5046558;28;20236;-70
2023/08/12 05:22:00;;;;;;;1999.90;999.90;;;22.00;99.90;;;;;;5052574;28;20179;-70
2023/08/12 05:24:25;;;;;;;1999.90;999.90;;;22.00;99.90;;;;;;5052034;28;20254;-70
2023/08/12 05:26:51;;;;;;;1999.90;999.90;;;22.00;99.90;;;;;;5052615;28;20769;-70
2023/08/12 05:29:17;;;;;;;1999.90;999.90;;;21.90;99.90;;;;;;5052493;28;20227;-70
2023/08/12 05:31:42;;;;;;;1999.90;999.90;;;21.90;99.90;;;;;;5052265;28;20641;-70
2023/08/12 05:34:08;;;;;;;1999.90;999.90;;;21.90;99.90;;;;;;5051905;28;20629;-70
2023/08/12 05:36:33;;;;;;;1999.90;999.90;;;21.90;99.90;;;;;;5052306;28;20245;-70
2023/08/12 05:38:59;;;;;;;1999.90;999.90;;;21.80;99.90;;;;;;5052371;28;20210;-70
2023/08/12 05:41:25;;;;;;;1999.90;999.90;;;21.80;99.90;;;;;;5052401;28;20660;-70
2023/08/12 05:43:50;;;;;;;1999.90;999.90;;;21.70;99.90;;;;;;5052615;28;20171;-70
2023/08/12 05:46:16;;;;;;;1999.90;999.90;;;21.70;99.90;;;;;;5052790;28;20201;-70
2023/08/12 05:48:42;;;;;;;1999.90;999.90;;;21.70;99.90;;;;;;5051717;28;20201;-70
2023/08/12 05:51:08;;;;;;;1999.90;999.90;;;21.60;99.90;;;;;;5051566;28;20840;-71
2023/08/12 05:53:33;;;;;;;1999.90;999.90;;;21.60;99.90;;;;;;5052218;28;20177;-71
2023/08/12 05:55:59;;;;;;;1999.90;999.90;;;21.60;99.90;;;;;;5051949;28;20170;-71
2023/08/12 05:58:25;;;;;;;1999.90;999.90;;;21.50;99.90;;;;;;5052186;28;20241;-70
2023/08/12 06:00:50;;;;;;;1999.90;999.90;;;21.50;99.90;;;;;;5052378;28;20447;-70
2023/08/12 06:03:16;;;;;;;1999.90;999.90;;;21.50;99.90;;;;;;5052451;28;20171;-70
2023/08/12 06:05:46;;;;;;;1999.90;999.90;;;21.50;99.90;;;;;;5051583;28;20171;-70
2023/08/12 06:08:11;;;;;;;1999.90;999.90;;;21.40;99.90;;;;;;5051457;28;20406;-70
2023/08/12 06:10:37;;;;;;;1999.90;999.90;;;21.40;99.90;;;;;;5051495;28;20520;-69
2023/08/12 06:13:03;;;;;;;1999.90;999.90;;;21.40;99.90;;;;;;5050321;28;20189;-70
2023/08/12 06:15:28;;;;;;;1999.90;999.90;;;21.40;99.90;;;;;;5051310;28;20183;-70
2023/08/12 06:17:54;;;;;;;1999.90;999.90;;;21.40;99.90;;;;;;5043185;28;20911;-70
2023/08/12 06:20:20;;;;;;;1999.90;999.90;;;21.40;99.90;;;;;;5051296;28;20203;-69
2023/08/12 06:22:45;;;;;;;1999.90;999.90;;;21.40;99.90;;;;;;5051235;28;20175;-70
2023/08/12 06:25:11;;;;;;;1999.90;999.90;;;21.40;99.90;;;;;;5051636;28;20176;-71
2023/08/12 06:27:37;;;;;;;1999.90;999.90;;;21.50;99.90;;;;;;5051775;28;20648;-71
2023/08/12 06:30:03;;;;;;;1999.90;999.90;;;21.60;99.90;;;;;;5051774;28;20436;-71
2023/08/12 06:32:29;;;;;;;1999.90;999.90;;;21.60;99.90;;;;;;5051171;28;20807;-70
2023/08/12 06:34:54;;;;;;;1999.90;999.90;;;21.70;99.90;;;;;;5052743;28;20473;-69
2023/08/12 06:37:20;;;;;;;1999.90;999.90;;;21.80;99.90;;;;;;5056139;28;20262;-70
2023/08/12 06:39:46;;;;;;;1999.90;999.90;;;22.00;99.90;;;;;;5055170;28;20272;-70
2023/08/12 06:42:11;;;;;;;1999.90;999.90;;;22.00;99.90;;;;;;5052661;28;20191;-71
2023/08/12 06:44:37;;;;;;;1999.90;999.90;;;22.00;99.90;;;;;;5049027;28;20168;-70
2023/08/12 06:47:03;;;;;;;1999.90;999.90;;;22.10;99.90;;;;;;5054084;28;20178;-70
2023/08/12 06:49:28;;;;;;;1999.90;999.90;;;22.20;99.90;;;;;;5053555;28;20445;-70
2023/08/12 06:51:54;;;;;;;1999.90;999.90;;;22.20;99.90;;;;;;5052430;28;20191;-70
2023/08/12 06:54:22;;;;;;;1999.90;999.90;;;22.20;99.90;;;;;;5051118;28;20185;-70
2023/08/12 06:56:48;;;;;;;1999.90;999.90;;;22.30;99.90;;;;;;5046398;28;20399;-69
2023/08/12 06:59:14;;;;;;;1999.90;999.90;;;22.40;99.90;;;;;;5054453;28;20462;-70
2023/08/12 07:01:39;;;;;;;1999.90;999.90;;;22.40;99.90;;;;;;5054430;28;20439;-70
2023/08/12 07:04:05;;;;;;;1999.90;999.90;;;22.50;99.90;;;;;;5054705;28;20210;-70
2023/08/12 07:06:31;;;;;;;1999.90;999.90;;;22.50;99.90;;;;;;5054517;28;20167;-70
2023/08/12 07:08:56;;;;;;;1999.90;999.90;;;22.50;99.90;;;;;;5054437;28;20278;-70
2023/08/12 07:11:22;;;;;;;1999.90;999.90;;;22.40;99.90;;;;;;5054120;28;20722;-70
2023/08/12 07:13:47;;;;;;;1999.90;999.90;;;22.30;99.90;;;;;;5054496;28;20190;-70
2023/08/12 07:16:13;;;;;;;1999.90;999.90;;;22.20;99.90;;;;;;5054715;28;20203;-71
2023/08/12 07:18:39;;;;;;;1999.90;999.90;;;22.10;99.90;;;;;;5054478;28;20234;-69
2023/08/12 07:21:04;;;;;;;1999.90;999.90;;;22.10;99.90;;;;;;5053892;28;20239;-70
2023/08/12 07:23:30;;;;;;;1999.90;999.90;;;22.00;99.90;;;;;;5054862;28;20618;-70
2023/08/12 07:25:55;;;;;;;1999.90;999.90;;;22.00;99.90;;;;;;5055271;28;20221;-70
2023/08/12 07:28:21;;;;;;;1999.90;999.90;;;22.00;99.90;;;;;;5055173;28;20259;-70
2023/08/12 07:30:49;;;;;;;1999.90;999.90;;;22.10;99.90;;;;;;5054093;28;20241;-70
2023/08/12 07:33:14;;;;;;;1999.90;999.90;;;22.10;99.90;;;;;;5053882;28;20258;-70
2023/08/12 07:35:40;;;;;;;1999.90;999.90;;;22.30;99.90;;;;;;5053871;28;20491;-70
2023/08/12 07:38:06;;;;;;;1999.90;999.90;;;22.40;99.90;;;;;;5053573;28;20184;-70
2023/08/12 07:40:32;;;;;;;1999.90;999.90;;;22.50;99.90;;;;;;5053792;28;20764;-70
2023/08/12 07:42:58;;;;;;;1999.90;999.90;;;22.60;99.90;;;;;;5053586;28;20412;-70
2023/08/12 07:45:23;;;;;;;1999.90;999.90;;;22.70;99.90;;;;;;5053852;28;20199;-69
2023/08/12 07:47:49;;;;;;;1999.90;999.90;;;22.80;99.90;;;;;;5053012;28;20175;-70
2023/08/12 07:50:15;;;;;;;1999.90;999.90;;;22.80;99.90;;;;;;5053741;28;20541;-70
2023/08/12 07:52:40;;;;;;;1999.90;999.90;;;22.90;99.90;;;;;;5053833;28;20410;-70
2023/08/12 07:55:06;;;;;;;1999.90;999.90;;;23.00;99.90;;;;;;5053766;28;20225;-70
2023/08/12 07:57:32;;;;;;;1999.90;999.90;;;23.00;99.90;;;;;;5053639;28;20263;-70
2023/08/12 07:59:58;;;;;;;1999.90;999.90;;;23.00;99.90;;;;;;5053512;28;20548;-70
2023/08/12 08:02:23;;;;;;;1999.90;999.90;;;23.00;99.90;;;;;;5053464;28;20176;-70
2023/08/12 08:04:49;;;;;;;1999.90;999.90;;;23.00;99.90;;;;;;5054101;28;20693;-71
2023/08/12 08:07:16;;;;;;;1999.90;999.90;;;23.10;99.90;;;;;;5054054;28;20172;-71
2023/08/12 08:09:42;;;;;;;1999.90;999.90;;;23.20;99.90;;;;;;5053770;28;20278;-70
2023/08/12 08:12:09;;;;;;;1999.90;999.90;;;23.30;99.90;;;;;;5045729;28;20831;-71
2023/08/12 08:14:35;;;;;;;1999.90;999.90;;;23.20;99.90;;;;;;5047228;28;20411;-71
2023/08/12 08:17:01;;;;;;;1999.90;999.90;;;23.30;99.90;;;;;;5050814;28;20389;-72
2023/08/12 08:19:27;;;;;;;1999.90;999.90;;;23.30;99.90;;;;;;5050388;28;20269;-71
2023/08/12 08:21:52;;;;;;;1999.90;999.90;;;23.30;99.90;;;;;;5049626;28;20638;-71
2023/08/12 08:24:18;;;;;;;1999.90;999.90;;;23.30;99.90;;;;;;5045033;28;20448;-71
2023/08/12 08:26:45;;;;;;;1999.90;999.90;;;23.30;99.90;;;;;;5053267;28;20168;-70
2023/08/12 08:29:11;;;;;;;1999.90;999.90;;;23.30;99.90;;;;;;5053367;28;20214;-71
2023/08/12 08:31:37;;;;;;;1999.90;999.90;;;23.20;99.90;;;;;;5038435;28;20430;-69
2023/08/12 08:34:02;;;;;;;1999.90;999.90;;;23.20;99.90;;;;;;5048643;28;20600;-69
2023/08/12 08:36:28;;;;;;;1999.90;999.90;;;23.20;99.90;;;;;;5047639;28;20195;-69
2023/08/12 08:38:54;;;;;;;1999.90;999.90;;;23.20;99.90;;;;;;5047869;28;20215;-69
2023/08/12 08:41:19;;;;;;;1999.90;999.90;;;23.20;99.90;;;;;;5048429;28;21002;-70
2023/08/12 08:43:48;;;;;;;1999.90;999.90;;;23.40;99.90;;;;;;5047713;28;20174;-71
2023/08/12 08:46:15;;;;;;;1999.90;999.90;;;23.50;99.90;;;;;;5048431;28;20241;-72
2023/08/12 08:48:46;;;;;;;1999.90;999.90;;;23.70;99.90;;;;;;5048378;28;20995;-70
2023/08/12 08:51:12;;;;;;;1999.90;999.90;;;23.90;99.90;;;;;;5047670;28;20952;-70
2023/08/12 08:53:39;;;;;;;1999.90;999.90;;;24.00;99.90;;;;;;5047507;28;20974;-69
2023/08/12 08:56:07;;;;;;;1999.90;999.90;;;24.20;99.90;;;;;;5048463;28;20397;-70
2023/08/12 08:58:32;;;;;;;1999.90;999.90;;;24.40;99.90;;;;;;5047410;28;20412;-70
2023/08/12 09:00:59;;;;;;;1999.90;999.90;;;24.60;99.90;;;;;;5038803;28;20412;-70
2023/08/12 09:03:26;;;;;;;1999.90;999.90;;;24.70;99.90;;;;;;5048164;28;20245;-69
2023/08/12 09:05:55;;;;;;;1999.90;999.90;;;24.70;99.90;;;;;;5047432;28;20389;-70
2023/08/12 09:08:21;;;;;;;1999.90;999.90;;;24.80;99.90;;;;;;5048971;28;20409;-71
2023/08/12 09:10:48;;;;;;;1999.90;999.90;;;24.80;99.90;;;;;;5050553;28;20472;-71
2023/08/12 09:13:14;;;;;;;1999.90;999.90;;;24.90;99.90;;;;;;5048186;28;20479;-71
2023/08/12 09:15:40;;;;;;;1999.90;999.90;;;25.10;99.90;;;;;;5049703;28;20434;-71
2023/08/12 09:18:06;;;;;;;1999.90;999.90;;;25.10;99.90;;;;;;5049810;28;20397;-71
2023/08/12 09:20:36;;;;;;;1999.90;999.90;;;25.10;99.90;;;;;;5049230;28;20459;-71
2023/08/12 09:23:02;;;;;;;1999.90;999.90;;;25.00;99.90;;;;;;5050129;28;20242;-71
2023/08/12 09:25:29;;;;;;;1999.90;999.90;;;24.80;99.90;;;;;;5048277;28;20445;-71
2023/08/12 09:27:57;;;;;;;1999.90;999.90;;;24.60;99.90;;;;;;5048320;28;20464;-71
2023/08/12 09:30:23;;;;;;;1999.90;999.90;;;24.60;99.90;;;;;;5049387;28;20812;-70
2023/08/12 09:33:03;;;;;;;1999.90;999.90;;;24.70;99.90;;;;;;5046782;28;20393;-70
2023/08/12 09:35:38;;;;;;;1999.90;999.90;;;24.70;99.90;;;;;;5046988;28;20174;-70
2023/08/12 09:38:05;;;;;;;1999.90;999.90;;;24.70;99.90;;;;;;5046767;28;20965;-70
2023/08/12 09:40:32;;;;;;;1999.90;999.90;;;24.80;99.90;;;;;;5046760;28;20435;-69
2023/08/12 09:42:58;;;;;;;1999.90;999.90;;;24.90;99.90;;;;;;5047309;28;20418;-70
2023/08/12 09:45:25;;;;;;;1999.90;999.90;;;25.00;99.90;;;;;;5047054;28;20515;-70
2023/08/12 09:47:52;;;;;;;1999.90;999.90;;;24.90;99.90;;;;;;5046888;28;20176;-70
2023/08/12 09:50:17;;;;;;;1999.90;999.90;;;24.90;99.90;;;;;;5047391;28;20396;-70
2023/08/12 09:52:43;;;;;;;1999.90;999.90;;;24.90;99.90;;;;;;5046602;28;20800;-70
2023/08/12 09:55:11;;;;;;;1999.90;999.90;;;24.70;99.90;;;;;;5046902;28;20247;-70
2023/08/12 09:57:41;;;;;;;1999.90;999.90;;;24.60;99.90;;;;;;5047343;28;20425;-70
2023/08/12 10:00:13;;;;;;;1999.90;999.90;;;24.50;99.90;;;;;;5046876;28;20469;-70
2023/08/12 10:02:41;;;;;;;1999.90;999.90;;;24.30;99.90;;;;;;5046507;28;20484;-70
2023/08/12 10:05:11;;;;;;;1999.90;999.90;;;24.10;99.90;;;;;;5046631;28;20734;-69
2023/08/12 10:07:37;;;;;;;1999.90;999.90;;;24.00;99.90;;;;;;5047596;28;20479;-69
2023/08/12 10:10:05;;;;;;;1999.90;999.90;;;23.70;99.90;;;;;;5048490;28;20437;-69
2023/08/12 10:12:31;;;;;;;1999.90;999.90;;;23.50;99.90;;;;;;5049982;28;20743;-69
2023/08/12 10:14:58;;;;;;;1999.90;999.90;;;23.30;99.90;;;;;;5051578;28;20392;-69
2023/08/12 10:17:24;;;;;;;1999.90;999.90;;;23.30;99.90;;;;;;5050647;28;20415;-69
2023/08/12 10:19:55;;;;;;;1999.90;999.90;;;23.30;99.90;;;;;;5049963;28;20466;-69
2023/08/12 10:22:21;;;;;;;1999.90;999.90;;;23.30;99.90;;;;;;5050977;28;20418;-69
2023/08/12 10:24:49;;;;;;;1999.90;999.90;;;23.30;99.90;;;;;;5050576;28;21139;-70
2023/08/12 10:27:16;;;;;;;1999.90;999.90;;;23.30;99.90;;;;;;5049906;28;21035;-70
2023/08/12 10:29:46;;;;;;;1999.90;999.90;;;23.40;99.90;;;;;;5051115;28;20448;-69
2023/08/12 10:32:14;;;;;;;1999.90;999.90;;;23.40;99.90;;;;;;5050574;28;20449;-70
2023/08/12 10:34:39;;;;;;;1999.90;999.90;;;23.40;99.90;;;;;;5049800;28;20414;-70
2023/08/12 10:37:06;;;;;;;1999.90;999.90;;;23.20;99.90;;;;;;5034140;28;20441;-69
2023/08/12 10:39:33;;;;;;;1999.90;999.90;;;23.20;99.90;;;;;;5050542;28;20227;-70
2023/08/12 10:41:59;;;;;;;1999.90;999.90;;;23.20;99.90;;;;;;5049698;28;20445;-69
2023/08/12 10:44:40;;;;;;;1999.90;999.90;;;23.10;99.90;;;;;;5050832;28;20786;-70
2023/08/12 10:47:11;;;;;;;1999.90;999.90;;;23.20;99.90;;;;;;5050432;28;20412;-70
2023/08/12 10:49:47;;;;;;;1999.90;999.90;;;23.20;99.90;;;;;;5051086;28;20445;-69
2023/08/12 10:52:33;;;;;;;1999.90;999.90;;;23.20;99.90;;;;;;5050585;28;20432;-70
2023/08/12 10:55:19;;;;;;;1999.90;999.90;;;23.10;99.90;;;;;;5049634;28;20518;-70
2023/08/12 10:57:45;;;;;;;1999.90;999.90;;;23.20;99.90;;;;;;5050144;28;20384;-70
2023/08/12 11:00:18;;;;;;;1999.90;999.90;;;23.10;99.90;;;;;;5050330;28;20457;-70
2023/08/12 11:02:50;;;;;;;1999.90;999.90;;;23.20;99.90;;;;;;5049903;28;20425;-70
2023/08/12 11:05:18;;;;;;;1999.90;999.90;;;23.20;99.90;;;;;;5050749;28;20450;-70
2023/08/12 11:07:45;;;;;;;1999.90;999.90;;;23.20;99.90;;;;;;5049960;28;20468;-70
2023/08/12 11:10:15;;;;;;;1999.90;999.90;;;23.20;99.90;;;;;;5049704;28;20869;-70
2023/08/12 11:12:45;;;;;;;1999.90;999.90;;;23.30;99.90;;;;;;5050296;28;20388;-70
2023/08/12 11:15:12;;;;;;;1999.90;999.90;;;23.30;99.90;;;;;;5050287;28;20393;-70
2023/08/12 11:17:40;;;;;;;1999.90;999.90;;;23.40;99.90;;;;;;5049300;28;20422;-70
2023/08/12 11:20:07;;;;;;;1999.90;999.90;;;23.50;99.90;;;;;;5050304;28;20424;-70
2023/08/12 11:22:43;;;;;;;1999.90;999.90;;;23.60;99.90;;;;;;5048814;28;20842;-70
2023/08/12 11:25:11;;;;;;;1999.90;999.90;;;23.60;99.90;;;;;;5049645;28;20834;-70
2023/08/12 11:27:45;;;;;;;1999.90;999.90;;;23.60;99.90;;;;;;5049501;28;20483;-70
2023/08/12 11:30:14;;;;;;;1999.90;999.90;;;23.50;99.90;;;;;;5049592;28;20483;-70
2023/08/12 11:32:41;;;;;;;1999.90;999.90;;;23.50;99.90;;;;;;5049552;28;21006;-69
2023/08/12 11:35:08;;;;;;;1999.90;999.90;;;23.50;99.90;;;;;;5049743;28;20773;-70
2023/08/12 11:37:36;;;;;;;1999.90;999.90;;;23.60;99.90;;;;;;5049293;28;20413;-70
2023/08/12 11:40:03;;;;;;;1999.90;999.90;;;23.50;99.90;;;;;;5049236;28;20552;-70
2023/08/12 11:42:29;;;;;;;1999.90;999.90;;;23.50;99.90;;;;;;5049467;28;20850;-70
2023/08/12 11:44:55;;;;;;;1999.90;999.90;;;23.50;99.90;;;;;;5049284;28;20414;-70
2023/08/12 11:47:21;;;;;;;1999.90;999.90;;;23.60;99.90;;;;;;5049637;28;20634;-70
2023/08/12 11:49:46;;;;;;;1999.90;999.90;;;23.70;99.90;;;;;;5049178;28;20203;-70
2023/08/12 11:52:13;;;;;;;1999.90;999.90;;;23.90;99.90;;;;;;5048884;28;20211;-70
2023/08/12 11:54:39;;;;;;;1999.90;999.90;;;24.30;99.90;;;;;;5048459;28;20226;-70
2023/08/12 11:57:05;;;;;;;1999.90;999.90;;;24.90;99.90;;;;;;5047972;28;20524;-70